Time;durP1;ratioP1;P1;durP2;ratioP2;P2;SDS_P1;SDS_P2;PMS_P1;PMS_P2;Temp;Humidity;BMP_temperature;BMP_pressure;BME280_temperature;BME280_humidity;BME280_pressure;Samples;Min_cycle;Max_cycle;Signal;HPM_P1;HPM_P2
2022/02/05 00:00:37;;;;;;;26.73;14.48;;;;;;;5.84;100.00;97759.94;5052543;28;20024;-79
2022/02/05 00:43:10;;;;;;;28.80;15.15;;;;;;;5.58;100.00;97774.53;5052410;28;20025;-75
2022/02/05 00:45:40;;;;;;;26.65;15.95;;;;;;;5.58;100.00;97774.53;5050491;28;20033;-75
2022/02/05 00:48:06;;;;;;;28.88;16.38;;;;;;;5.48;100.00;97769.09;5052131;28;20375;-75
2022/02/05 00:50:34;;;;;;;30.33;16.52;;;;;;;5.56;100.00;97771.28;5050771;28;20021;-75
2022/02/05 00:53:12;;;;;;;26.83;15.80;;;;;;;5.49;100.00;97765.28;5050750;28;20040;-75
2022/02/05 00:55:42;;;;;;;28.02;16.23;;;;;;;5.46;100.00;97772.06;5051939;28;20085;-75
2022/02/05 00:58:07;;;;;;;29.00;17.38;;;;;;;5.40;100.00;97770.44;5055066;28;20080;-77
2022/02/05 01:00:35;;;;;;;35.38;16.90;;;;;;;5.50;100.00;97780.50;5052221;28;20032;-78
2022/02/05 01:03:01;;;;;;;35.17;17.38;;;;;;;5.49;100.00;97770.72;5051923;28;20494;-76
2022/02/05 01:05:26;;;;;;;37.90;16.98;;;;;;;5.40;100.00;97765.81;5051725;28;20052;-77
2022/02/05 01:07:57;;;;;;;31.17;17.15;;;;;;;5.39;100.00;97777.75;5051936;28;20025;-75
2022/02/05 01:10:27;;;;;;;33.55;16.67;;;;;;;5.36;100.00;97762.00;5051455;28;20371;-75
2022/02/05 01:13:01;;;;;;;39.90;16.65;;;;;;;5.31;100.00;97764.72;5050326;28;20032;-75
2022/02/05 01:15:33;;;;;;;34.92;17.27;;;;;;;5.29;100.00;97761.44;5050739;28;20033;-77
2022/02/05 01:18:03;;;;;;;32.13;16.63;;;;;;;5.27;100.00;97765.50;5054094;28;20474;-76
2022/02/05 01:21:03;;;;;;;25.63;14.93;;;;;;;5.39;100.00;97772.31;5051871;28;20025;-76
2022/02/05 01:27:06;;;;;;;30.08;16.02;;;;;;;5.29;100.00;97777.69;5051439;28;20040;-75
2022/02/05 01:29:02;;;;;;;35.63;16.35;;;;;;;5.25;100.00;97787.47;5047992;28;20048;-76
2022/02/05 01:31:34;;;;;;;33.28;15.13;;;;;;;5.21;100.00;97782.84;5051113;28;20625;-76
2022/02/05 02:11:53;;;;;;;24.23;12.32;;;;;;;4.51;100.00;97786.00;5053251;28;20036;-75
2022/02/05 02:22:33;;;;;;;32.08;15.40;;;;;;;4.39;100.00;97801.59;5056175;28;20025;-77
2022/02/05 02:27:58;;;;;;;24.02;12.77;;;;;;;4.35;100.00;97803.19;5050204;28;20025;-75
2022/02/05 02:30:27;;;;;;;27.33;13.13;;;;;;;4.27;100.00;97807.19;5050398;28;20033;-76
2022/02/05 02:33:03;;;;;;;27.45;12.90;;;;;;;4.24;100.00;97808.53;5049301;28;20082;-75
2022/02/05 02:35:31;;;;;;;23.77;13.00;;;;;;;4.22;100.00;97805.28;5048942;28;20126;-76
2022/02/05 02:38:03;;;;;;;21.05;10.95;;;;;;;4.26;100.00;97811.78;5049906;28;20033;-75
2022/02/05 02:43:09;;;;;;;21.40;12.80;;;;;;;4.11;100.00;97798.13;5050516;28;20543;-76
2022/02/05 02:45:35;;;;;;;26.13;12.52;;;;;;;4.04;100.00;97786.69;5048802;28;20033;-76
2022/02/05 02:48:00;;;;;;;28.25;13.05;;;;;;;4.03;100.00;97801.31;5053384;28;20397;-77
2022/02/05 02:56:23;;;;;;;27.90;13.48;;;;;;;3.83;100.00;97794.88;5055540;28;20504;-75
2022/02/05 02:58:47;;;;;;;33.78;15.02;;;;;;;3.40;100.00;97807.44;5041079;28;20441;-75
2022/02/05 03:01:18;;;;;;;25.88;14.27;;;;;;;3.23;100.00;97801.28;5049815;28;20041;-75
2022/02/05 03:03:43;;;;;;;29.60;15.18;;;;;;;3.22;100.00;97821.28;5029995;28;20057;-75
2022/02/05 03:06:08;;;;;;;29.27;14.73;;;;;;;3.14;100.00;97809.00;5028489;28;20060;-75
2022/02/05 03:08:34;;;;;;;30.75;14.48;;;;;;;3.27;100.00;97801.59;5033627;28;20506;-75
2022/02/05 03:10:59;;;;;;;32.65;14.90;;;;;;;3.20;100.00;97815.28;5030271;28;20060;-82
2022/02/05 03:13:25;;;;;;;27.80;14.00;;;;;;;3.12;100.00;97816.56;5028399;28;20108;-76
2022/02/05 03:15:52;;;;;;;27.75;14.60;;;;;;;3.10;100.00;97818.66;5047666;28;20037;-75
2022/02/05 03:18:30;;;;;;;26.50;14.55;;;;;;;3.00;100.00;97815.88;5048140;28;20390;-75
2022/02/05 03:20:55;;;;;;;28.58;14.38;;;;;;;2.88;100.00;97822.44;5048360;28;20044;-75
2022/02/05 03:23:21;;;;;;;23.98;13.80;;;;;;;2.86;100.00;97833.47;5049823;28;20436;-76
2022/02/05 03:25:46;;;;;;;25.67;14.63;;;;;;;2.80;100.00;97833.66;5049435;28;20052;-75
2022/02/05 03:28:12;;;;;;;29.75;14.52;;;;;;;2.76;100.00;97816.34;5049079;28;20033;-75
2022/02/05 03:30:37;;;;;;;27.38;13.90;;;;;;;2.85;100.00;97831.84;5049606;28;20025;-74
2022/02/05 03:33:03;;;;;;;26.70;14.65;;;;;;;2.79;100.00;97824.72;5048240;28;20024;-76
2022/02/05 03:35:28;;;;;;;28.80;14.35;;;;;;;2.72;100.00;97818.72;5052564;28;20028;-74
2022/02/05 03:37:54;;;;;;;27.08;13.77;;;;;;;2.70;100.00;97823.53;5053128;28;20482;-76
2022/02/05 03:40:19;;;;;;;35.38;16.27;;;;;;;2.66;100.00;97823.19;5051742;28;20466;-75
2022/02/05 03:42:45;;;;;;;32.92;15.65;;;;;;;2.66;100.00;97838.63;5052554;28;20485;-75
2022/02/05 03:45:11;;;;;;;27.15;14.38;;;;;;;2.66;100.00;97838.63;5053230;28;20100;-75
2022/02/05 03:47:37;;;;;;;32.13;14.80;;;;;;;2.54;100.00;97841.38;5054013;28;20025;-75
2022/02/05 03:50:04;;;;;;;31.63;15.65;;;;;;;2.58;100.00;97856.03;5055798;28;20029;-74
2022/02/05 03:52:30;;;;;;;34.75;15.38;;;;;;;2.52;100.00;97851.63;5054262;28;20021;-75
2022/02/05 03:54:55;;;;;;;40.75;17.63;;;;;;;2.49;100.00;97849.41;5053974;28;20033;-76
2022/02/05 03:57:21;;;;;;;44.20;19.40;;;;;;;2.52;100.00;97857.03;5053952;28;20080;-76
2022/02/05 03:59:46;;;;;;;42.45;18.42;;;;;;;2.50;100.00;97845.66;5053201;28;20021;-76
2022/02/05 04:02:12;;;;;;;30.52;16.40;;;;;;;2.52;100.00;97837.31;5052911;28;20040;-75
2022/02/05 04:04:37;;;;;;;34.65;15.18;;;;;;;2.54;100.00;97845.97;5055578;28;20036;-74
2022/02/05 04:07:04;;;;;;;26.52;14.80;;;;;;;2.50;100.00;97834.88;5053831;28;20064;-76
2022/02/05 04:09:37;;;;;;;27.50;13.93;;;;;;;2.45;100.00;97847.44;5053011;28;20029;-76
2022/02/05 04:17:28;;;;;;;26.58;14.68;;;;;;;2.31;100.00;97852.38;5053066;28;20099;-76
2022/02/05 04:19:54;;;;;;;34.55;15.23;;;;;;;2.34;100.00;97845.66;5052941;28;20583;-76
2022/02/05 04:22:19;;;;;;;38.55;16.10;;;;;;;2.27;100.00;97859.31;5050952;28;20123;-75
2022/02/05 04:24:45;;;;;;;34.88;15.25;;;;;;;2.24;100.00;97850.88;5054999;28;20386;-75
2022/02/05 04:27:10;;;;;;;34.70;15.35;;;;;;;2.27;100.00;97866.59;5057413;28;20106;-76
2022/02/05 04:29:36;;;;;;;31.38;16.75;;;;;;;2.25;100.00;97863.31;5057349;28;20032;-76
2022/02/05 04:32:03;;;;;;;33.40;15.95;;;;;;;2.33;100.00;97866.41;5054141;28;20474;-76
2022/02/05 04:34:29;;;;;;;31.25;15.65;;;;;;;2.26;100.00;97860.34;5056133;28;20085;-76
2022/02/05 04:36:54;;;;;;;28.08;14.73;;;;;;;2.20;100.00;97865.91;5053219;28;20056;-76
2022/02/05 04:39:21;;;;;;;28.02;15.02;;;;;;;2.11;100.00;97868.19;5056127;28;20078;-76
2022/02/05 04:41:55;;;;;;;33.42;16.10;;;;;;;2.15;100.00;97880.97;5054186;28;20037;-75
2022/02/05 04:45:14;;;;;;;30.63;15.55;;;;;;;2.17;100.00;97869.91;5052121;28;20087;-75
2022/02/05 04:56:12;;;;;;;27.73;14.75;;;;;;;2.08;100.00;97887.56;5051226;28;20025;-75
2022/02/05 05:01:05;;;;;;;27.92;14.25;;;;;;;1.90;100.00;97888.59;5053472;28;20059;-75
2022/02/05 05:08:52;;;;;;;30.40;14.52;;;;;;;1.68;100.00;97898.44;5051329;28;20074;-75
2022/02/05 05:19:25;;;;;;;26.30;14.25;;;;;;;1.51;100.00;97916.38;5051384;28;20504;-75
2022/02/05 05:21:50;;;;;;;27.25;14.98;;;;;;;1.35;100.00;97906.34;5051436;28;20132;-75
2022/02/05 05:24:16;;;;;;;31.35;15.88;;;;;;;1.25;100.00;97920.44;5051225;28;20111;-75
2022/02/05 05:26:41;;;;;;;27.50;15.35;;;;;;;1.25;100.00;97922.31;5049676;28;20035;-75
2022/02/05 05:29:06;;;;;;;34.25;15.93;;;;;;;1.26;100.00;97932.03;5050986;28;20054;-74
2022/02/05 05:31:32;;;;;;;22.80;14.10;;;;;;;1.33;100.00;97935.41;5051218;28;20470;-75
2022/02/05 05:33:57;;;;;;;29.90;15.65;;;;;;;1.32;100.00;97939.16;5051065;28;20086;-75
2022/02/05 05:36:23;;;;;;;32.67;17.35;;;;;;;1.29;100.00;97936.94;5051252;28;20044;-75
2022/02/05 05:38:48;;;;;;;30.15;16.38;;;;;;;1.34;100.00;97937.88;5050799;28;20035;-75
2022/02/05 05:41:14;;;;;;;32.40;16.30;;;;;;;1.25;100.00;97943.88;5049608;28;20060;-75
2022/02/05 05:44:03;;;;;;;30.05;15.32;;;;;;;1.24;100.00;97926.88;5049988;28;20036;-75
2022/02/05 05:46:34;;;;;;;27.10;15.07;;;;;;;1.27;100.00;97947.97;5049403;28;20061;-75
2022/02/05 05:49:18;;;;;;;24.45;14.25;;;;;;;1.27;100.00;97941.75;5049546;28;20033;-75
2022/02/05 05:51:46;;;;;;;32.58;15.90;;;;;;;1.26;100.00;97942.78;5049427;28;20028;-75
2022/02/05 05:54:13;;;;;;;30.63;16.30;;;;;;;1.29;100.00;97950.41;5054315;28;20398;-75
2022/02/05 05:56:40;;;;;;;26.30;14.48;;;;;;;1.30;100.00;97949.34;5050712;28;20056;-75
2022/02/05 05:59:06;;;;;;;28.45;15.27;;;;;;;1.13;100.00;97951.16;5050690;28;20100;-75
2022/02/05 06:01:31;;;;;;;28.17;14.68;;;;;;;1.04;100.00;97959.56;5049430;28;20178;-75
2022/02/05 06:03:57;;;;;;;28.63;15.82;;;;;;;1.14;100.00;97953.59;5050539;28;20075;-74
2022/02/05 06:06:23;;;;;;;29.10;15.63;;;;;;;1.18;100.00;97959.34;5049145;28;20029;-75
2022/02/05 06:08:49;;;;;;;36.47;16.30;;;;;;;1.10;100.00;97965.88;5050682;28;20033;-75
2022/02/05 06:11:15;;;;;;;29.35;15.70;;;;;;;1.19;100.00;97969.06;5050489;28;20036;-75
2022/02/05 06:13:40;;;;;;;33.97;14.90;;;;;;;1.08;100.00;97960.75;5050895;28;20037;-74
2022/02/05 06:16:10;;;;;;;30.45;15.52;;;;;;;1.12;100.00;97973.75;5050833;28;20032;-75
2022/02/05 06:18:36;;;;;;;26.08;14.95;;;;;;;1.29;100.00;97980.03;5050692;28;20025;-75
2022/02/05 06:21:01;;;;;;;33.45;14.73;;;;;;;1.24;100.00;97977.25;5050123;28;20025;-75
2022/02/05 06:23:27;;;;;;;29.60;15.15;;;;;;;1.18;100.00;97980.88;5050626;28;20025;-75
2022/02/05 06:25:52;;;;;;;30.52;14.18;;;;;;;1.12;100.00;97988.03;5050110;28;20029;-75
2022/02/05 06:28:18;;;;;;;33.50;15.27;;;;;;;1.06;100.00;97987.09;5051607;28;20802;-75
2022/02/05 06:30:44;;;;;;;28.58;15.27;;;;;;;1.18;100.00;97997.03;5052603;28;20025;-75
2022/02/05 06:33:10;;;;;;;25.20;15.57;;;;;;;1.06;100.00;97999.75;5050395;28;20028;-75
2022/02/05 06:35:35;;;;;;;40.00;17.33;;;;;;;1.27;100.00;98001.00;5050142;28;20489;-76
2022/02/05 06:38:04;;;;;;;49.35;18.38;;;;;;;1.37;100.00;98010.16;5046532;28;20478;-77
2022/02/05 06:40:30;;;;;;;34.85;16.55;;;;;;;1.42;100.00;98021.03;5041787;28;20564;-75
2022/02/05 06:42:56;;;;;;;36.65;17.05;;;;;;;1.58;100.00;98022.19;5048413;28;20029;-75
2022/02/05 06:45:21;;;;;;;50.03;17.73;;;;;;;1.69;100.00;98026.75;5051233;28;20048;-76
2022/02/05 06:47:47;;;;;;;39.97;16.92;;;;;;;1.97;100.00;98032.19;5048573;28;20036;-77
2022/02/05 06:50:22;;;;;;;41.42;16.15;;;;;;;2.33;100.00;98041.00;5051251;28;20033;-75
2022/02/05 06:52:50;;;;;;;39.17;16.05;;;;;;;2.62;100.00;98045.34;5045753;28;20075;-75
2022/02/05 06:55:15;;;;;;;34.63;15.73;;;;;;;2.79;100.00;98048.88;5048366;28;20127;-75
2022/02/05 06:57:44;;;;;;;28.73;14.82;;;;;;;3.11;100.00;98041.88;5048185;28;20132;-75
2022/02/05 07:00:13;;;;;;;30.52;13.15;;;;;;;2.94;100.00;98005.13;5045743;28;20025;-81
2022/02/05 07:02:43;;;;;;;26.20;13.57;;;;;;;3.27;100.00;98050.22;5050405;28;20021;-84
2022/02/05 07:05:09;;;;;;;33.40;17.90;;;;;;;3.47;100.00;98055.94;5072351;28;20029;-83
2022/02/05 07:07:36;;;;;;;36.22;16.35;;;;;;;3.41;100.00;98051.53;5050345;28;20040;-74
2022/02/05 07:10:02;;;;;;;42.72;23.33;;;;;;;3.48;100.00;98060.28;5051614;28;20029;-77
2022/02/05 07:12:28;;;;;;;30.98;16.08;;;;;;;3.94;100.00;98054.47;5053532;28;20032;-76
2022/02/05 07:17:28;;;;;;;24.50;13.60;;;;;;;4.45;100.00;98055.09;5052294;28;20088;-76
2022/02/05 07:22:22;;;;;;;22.83;12.20;;;;;;;5.08;96.90;98052.47;5052650;28;20029;-76
2022/02/05 07:29:13;;;;;;;20.88;11.98;;;;;;;5.27;95.53;98061.03;5045682;28;20543;-76
2022/02/05 07:30:32;;;;;;;24.50;12.45;;;;;;;5.68;92.42;98056.75;5052253;28;20052;-76
2022/02/05 07:32:58;;;;;;;27.35;10.55;;;;;;;5.89;91.19;98063.97;5051985;28;20475;-76
2022/02/05 07:35:25;;;;;;;24.20;13.02;;;;;;;5.88;90.37;98076.75;5043962;28;20036;-78
2022/02/05 07:37:53;;;;;;;25.27;11.70;;;;;;;6.12;89.36;98079.84;5048002;28;20041;-77
2022/02/05 07:40:19;;;;;;;24.67;12.48;;;;;;;6.21;88.31;98072.00;5046055;28;20025;-77
2022/02/05 07:42:44;;;;;;;27.17;12.80;;;;;;;6.16;88.43;98069.28;5044525;28;20075;-76
2022/02/05 07:45:10;;;;;;;20.05;10.73;;;;;;;6.58;86.98;98070.00;5048162;28;20053;-75
2022/02/05 07:47:35;;;;;;;20.83;11.25;;;;;;;7.31;83.65;98070.69;5043624;28;20098;-76
2022/02/05 07:50:01;;;;;;;18.13;10.80;;;;;;;8.80;77.37;98077.19;5036050;28;20036;-76
2022/02/05 07:52:26;;;;;;;23.60;11.05;;;;;;;9.43;71.95;98070.75;5042241;28;20021;-75
2022/02/05 07:54:52;;;;;;;17.00;10.40;;;;;;;10.06;68.68;98076.19;5043066;28;20092;-73
2022/02/05 07:57:17;;;;;;;16.60;10.55;;;;;;;10.48;66.46;98075.50;5031994;28;20494;-78
2022/02/05 07:59:43;;;;;;;19.75;11.00;;;;;;;11.32;63.46;98080.09;5036621;28;20108;-75
2022/02/05 08:02:09;;;;;;;21.90;12.05;;;;;;;11.73;61.29;98088.53;5033626;28;20026;-75
2022/02/05 08:04:35;;;;;;;20.42;11.48;;;;;;;11.63;60.98;98099.59;5033600;28;20029;-76
2022/02/05 08:07:02;;;;;;;25.58;12.13;;;;;;;10.71;64.08;98099.28;5044922;28;20505;-73
2022/02/05 08:09:45;;;;;;;21.67;13.10;;;;;;;11.84;60.56;98095.44;5051907;28;20033;-74
2022/02/05 08:12:13;;;;;;;24.40;12.57;;;;;;;12.17;60.22;98079.78;5051271;28;20029;-74
2022/02/05 08:14:43;;;;;;;20.95;12.05;;;;;;;12.42;57.75;98097.69;5050621;28;20056;-74
2022/02/05 08:17:18;;;;;;;20.92;11.68;;;;;;;12.79;56.35;98092.00;5047215;28;20041;-74
2022/02/05 08:19:44;;;;;;;16.55;11.30;;;;;;;12.76;55.81;98082.47;5053215;28;20048;-76
2022/02/05 08:22:10;;;;;;;20.50;11.10;;;;;;;13.25;54.53;98084.44;5050923;28;20115;-76
2022/02/05 08:24:35;;;;;;;19.70;11.45;;;;;;;13.77;52.51;98079.38;5050507;28;20464;-75
2022/02/05 08:27:00;;;;;;;27.20;13.18;;;;;;;13.88;50.76;98078.78;5048876;28;20120;-77
2022/02/05 08:29:30;;;;;;;23.73;11.55;;;;;;;14.02;50.47;98086.16;5044231;28;20033;-78
2022/02/05 08:31:56;;;;;;;22.58;12.20;;;;;;;14.54;49.25;98077.06;5048754;28;20486;-76
2022/02/05 08:34:21;;;;;;;93.30;50.78;;;;;;;14.23;50.46;98081.75;5051576;28;20079;-75
2022/02/05 08:36:47;;;;;;;25.95;13.57;;;;;;;14.04;51.20;98094.91;5052968;28;20029;-78
2022/02/05 08:39:14;;;;;;;18.00;11.30;;;;;;;14.56;50.43;98096.03;5054003;28;20021;-74
2022/02/05 08:41:41;;;;;;;25.55;13.40;;;;;;;14.85;49.58;98107.31;5055604;28;20530;-75
2022/02/05 08:44:07;;;;;;;22.33;9.40;;;;;;;14.18;51.08;98104.72;5053275;28;20052;-76
2022/02/05 08:46:33;;;;;;;17.48;9.98;;;;;;;13.11;53.77;98104.81;5051523;28;20021;-74
2022/02/05 08:49:03;;;;;;;17.67;10.27;;;;;;;13.16;53.99;98110.19;5050851;28;20033;-76
2022/02/05 08:51:29;;;;;;;21.88;9.90;;;;;;;13.49;53.55;98103.41;5051707;28;20056;-78
2022/02/05 08:53:55;;;;;;;17.45;9.23;;;;;;;14.15;52.79;98112.78;5052938;28;20466;-77
2022/02/05 08:56:22;;;;;;;18.45;8.95;;;;;;;14.45;51.76;98095.50;5052231;28;20060;-76
2022/02/05 08:58:54;;;;;;;25.85;9.30;;;;;;;15.60;48.72;98109.72;5055536;28;20033;-78
2022/02/05 09:01:25;;;;;;;17.77;9.02;;;;;;;15.51;48.02;98106.16;5068967;28;20082;-76
2022/02/05 09:06:18;;;;;;;23.33;9.57;;;;;;;15.31;48.19;98104.03;5058905;28;20044;-81
2022/02/05 09:08:51;;;;;;;15.50;8.55;;;;;;;15.29;48.46;98109.03;5064238;28;20039;-84
2022/02/05 09:12:17;;;;;;;13.80;8.93;;;;;;;14.80;49.25;98112.97;5061689;28;20132;-82
2022/02/05 09:14:15;;;;;;;16.08;8.48;;;;;;;15.57;47.71;98112.34;5056309;28;20044;-86
2022/02/05 09:16:43;;;;;;;14.50;9.13;;;;;;;15.57;47.15;98115.91;5064706;28;20401;-89
2022/02/05 09:19:09;;;;;;;17.52;8.80;;;;;;;15.39;47.59;98120.56;5040264;28;20025;-76
2022/02/05 09:21:34;;;;;;;16.38;8.68;;;;;;;14.70;49.13;98125.06;5056402;28;20021;-76
2022/02/05 09:24:02;;;;;;;23.73;10.77;;;;;;;15.19;47.74;98145.19;5053469;28;20035;-75
2022/02/05 09:26:30;;;;;;;20.48;9.85;;;;;;;15.32;47.76;98136.75;5052930;28;20040;-75
2022/02/05 09:29:03;;;;;;;16.67;9.10;;;;;;;15.85;46.83;98155.03;5053077;28;20041;-75
2022/02/05 09:31:34;;;;;;;21.52;8.98;;;;;;;16.17;45.12;98157.25;5060533;28;20029;-75
2022/02/05 09:34:01;;;;;;;17.25;10.00;;;;;;;16.43;44.42;98157.22;5063724;28;20393;-77
2022/02/05 09:36:26;;;;;;;26.98;10.70;;;;;;;15.62;46.22;98151.59;5064257;28;20120;-75
2022/02/05 09:38:56;;;;;;;20.70;11.90;;;;;;;16.71;43.70;98166.75;5058469;28;20071;-73
2022/02/05 09:41:23;;;;;;;19.10;10.45;;;;;;;15.84;45.36;98169.94;5052208;28;20061;-73
2022/02/05 09:43:49;;;;;;;22.15;11.00;;;;;;;16.75;43.46;98167.75;5052465;28;20052;-75
2022/02/05 09:46:16;;;;;;;22.67;9.32;;;;;;;15.82;45.30;98172.22;5051652;28;20025;-75
2022/02/05 09:48:45;;;;;;;21.92;9.38;;;;;;;15.79;45.38;98176.44;5050532;28;20021;-74
2022/02/05 09:51:19;;;;;;;20.00;9.13;;;;;;;15.13;46.96;98172.06;5053284;28;20460;-75
2022/02/05 09:53:49;;;;;;;21.98;10.75;;;;;;;15.51;46.36;98166.81;5054903;28;20037;-77
2022/02/05 09:56:16;;;;;;;17.23;11.02;;;;;;;13.98;49.15;98168.50;5051013;28;20028;-76
2022/02/05 09:58:42;;;;;;;23.33;11.27;;;;;;;14.21;48.96;98167.38;5063069;28;20027;-74
2022/02/05 10:01:24;;;;;;;26.00;12.80;;;;;;;13.95;50.49;98174.63;5061994;28;20021;-75
2022/02/05 10:04:10;;;;;;;18.92;10.98;;;;;;;13.67;50.43;98186.81;5049657;28;20036;-73
2022/02/05 10:06:44;;;;;;;25.05;10.85;;;;;;;13.36;51.92;98167.47;5036476;28;20537;-76
2022/02/05 10:09:15;;;;;;;25.42;11.63;;;;;;;13.42;52.10;98177.22;5061135;28;20430;-75
2022/02/05 10:12:03;;;;;;;27.95;11.45;;;;;;;13.66;51.17;98171.44;5069045;28;20025;-76
2022/02/05 10:14:32;;;;;;;18.30;11.35;;;;;;;13.58;50.94;98173.00;5051849;28;20056;-75
2022/02/05 10:17:00;;;;;;;23.58;11.68;;;;;;;13.80;51.65;98178.53;5055156;28;20405;-77
2022/02/05 10:19:45;;;;;;;20.45;10.57;;;;;;;14.46;49.35;98171.44;5057863;28;20033;-74
2022/02/05 10:22:11;;;;;;;20.95;10.45;;;;;;;13.87;50.81;98176.19;5050403;28;20024;-75
2022/02/05 10:25:02;;;;;;;21.15;11.82;;;;;;;13.76;51.24;98177.53;5052846;28;20040;-75
2022/02/05 10:27:39;;;;;;;19.42;10.13;;;;;;;13.73;50.99;98166.34;5058395;28;20429;-75
2022/02/05 10:30:14;;;;;;;20.73;9.68;;;;;;;14.14;50.63;98171.69;5067084;28;20043;-75
2022/02/05 10:32:48;;;;;;;21.02;10.05;;;;;;;14.18;50.25;98172.69;5032090;28;20120;-74
2022/02/05 10:35:25;;;;;;;19.02;10.82;;;;;;;14.48;49.44;98166.41;5057753;28;20032;-75
2022/02/05 10:38:02;;;;;;;21.48;9.48;;;;;;;14.70;48.73;98162.81;5053958;28;20082;-74
2022/02/05 10:42:48;;;;;;;17.85;9.85;;;;;;;14.44;48.54;98165.41;5065788;28;20029;-75
2022/02/05 10:43:32;;;;;;;20.23;9.88;;;;;;;14.64;48.38;98170.41;5058880;28;20040;-76
2022/02/05 10:46:00;;;;;;;22.00;10.90;;;;;;;14.06;49.26;98169.69;5053135;28;20036;-81
2022/02/05 10:48:31;;;;;;;19.08;9.88;;;;;;;13.77;50.72;98178.34;5066197;28;20047;-76
2022/02/05 10:51:00;;;;;;;19.92;11.13;;;;;;;13.83;50.88;98179.84;5055554;28;20111;-76
2022/02/05 10:53:33;;;;;;;17.15;10.48;;;;;;;13.82;51.11;98168.03;5069636;28;20482;-74
2022/02/05 10:56:23;;;;;;;22.95;11.38;;;;;;;14.03;50.85;98167.56;5021573;28;1305507;-77
2022/02/05 10:59:30;;;;;;;20.48;10.90;;;;;;;13.85;50.46;98167.41;5070057;28;20044;-74
2022/02/05 11:07:27;;;;;;;19.95;9.45;;;;;;;15.10;47.70;98172.69;5070213;28;20106;-76
2022/02/05 11:09:56;;;;;;;20.45;10.15;;;;;;;14.68;48.19;98170.59;5070402;28;20024;-74
2022/02/05 11:20:22;;;;;;;18.05;10.07;;;;;;;14.95;48.29;98171.19;5050760;28;20067;-76
2022/02/05 11:22:50;;;;;;;21.67;10.32;;;;;;;14.71;48.58;98176.28;5050716;28;20063;-74
2022/02/05 11:25:18;;;;;;;17.00;10.00;;;;;;;13.97;50.28;98186.09;5053010;28;20036;-75
2022/02/05 11:27:48;;;;;;;15.73;9.05;;;;;;;14.57;49.09;98178.28;5050675;28;20028;-76
2022/02/05 11:30:34;;;;;;;20.45;9.82;;;;;;;14.20;49.73;98187.75;5049035;28;20031;-74
2022/02/05 11:33:07;;;;;;;16.13;8.38;;;;;;;14.12;49.78;98184.94;5050162;28;20542;-74
2022/02/05 11:36:39;;;;;;;19.58;10.63;;;;;;;13.47;51.57;98176.31;5046567;28;20033;-75
2022/02/05 11:38:30;;;;;;;17.65;9.45;;;;;;;13.38;52.22;98162.44;5063679;28;20110;-74
2022/02/05 11:40:56;;;;;;;19.73;9.30;;;;;;;13.51;52.35;98163.53;5051650;28;20021;-76
2022/02/05 11:43:27;;;;;;;14.52;8.88;;;;;;;13.98;50.78;98160.22;5050829;28;20683;-77
2022/02/05 11:46:05;;;;;;;18.00;9.55;;;;;;;15.31;47.98;98153.63;5048081;28;20067;-78
2022/02/05 11:48:46;;;;;;;16.98;8.18;;;;;;;15.80;46.17;98157.94;5051248;28;20064;-74
2022/02/05 11:51:15;;;;;;;19.55;7.97;;;;;;;15.48;46.08;98161.94;5050905;28;20117;-82
2022/02/05 11:53:57;;;;;;;15.90;7.95;;;;;;;14.94;47.52;98158.53;5047882;28;20470;-76
2022/02/05 11:59:22;;;;;;;19.17;9.23;;;;;;;13.93;50.66;98165.88;5050383;28;20433;-73
2022/02/05 12:01:48;;;;;;;17.33;9.00;;;;;;;13.83;51.34;98158.69;5057340;28;20083;-75
2022/02/05 12:04:23;;;;;;;17.55;7.78;;;;;;;13.65;51.66;98154.16;5057336;28;20112;-73
2022/02/05 12:06:54;;;;;;;14.82;8.38;;;;;;;13.36;52.64;98145.47;5056387;28;20124;-73
2022/02/05 12:09:36;;;;;;;18.00;8.45;;;;;;;13.03;52.85;98142.00;5051879;28;20095;-72
2022/02/05 12:12:27;;;;;;;16.55;8.60;;;;;;;12.93;54.12;98135.94;5049410;28;20025;-73
2022/02/05 12:15:18;;;;;;;16.25;8.02;;;;;;;13.05;53.38;98139.81;5052437;28;20505;-72
2022/02/05 12:20:55;;;;;;;20.35;8.48;;;;;;;12.94;53.72;98146.59;5050788;28;20036;-72
2022/02/05 12:26:00;;;;;;;15.57;7.38;;;;;;;12.51;55.41;98137.03;5055729;28;20056;-77
2022/02/05 12:28:28;;;;;;;16.38;7.57;;;;;;;12.16;56.15;98130.25;5055574;28;20083;-84
2022/02/05 12:30:54;;;;;;;11.15;6.40;;;;;;;11.93;56.80;98129.31;5057277;28;20040;-89
2022/02/05 12:33:20;;;;;;;16.02;7.60;;;;;;;11.92;57.19;98127.66;5055784;28;20517;-85
2022/02/05 12:35:51;;;;;;;14.27;6.70;;;;;;;12.11;56.95;98130.38;5056349;28;20036;-80
2022/02/05 12:38:18;;;;;;;19.55;6.88;;;;;;;12.17;56.73;98129.16;5062820;28;20075;-88
2022/02/05 12:40:46;;;;;;;17.30;8.85;;;;;;;12.12;56.44;98124.56;5055452;28;20478;-77
2022/02/05 12:43:13;;;;;;;24.60;8.52;;;;;;;12.10;56.52;98128.72;5052733;28;20067;-77
2022/02/05 12:45:54;;;;;;;15.40;7.93;;;;;;;12.08;56.98;98130.97;5060227;28;20020;-83
2022/02/05 12:48:23;;;;;;;16.23;7.32;;;;;;;12.03;56.87;98123.63;5056296;28;20025;-73
2022/02/05 12:50:49;;;;;;;17.00;6.80;;;;;;;11.93;56.77;98123.00;5049906;28;20029;-74
2022/02/05 12:53:15;;;;;;;15.77;6.82;;;;;;;11.90;56.89;98115.38;5050276;28;20414;-73
2022/02/05 12:55:45;;;;;;;13.02;7.03;;;;;;;11.95;56.79;98115.28;5050969;28;20028;-74
2022/02/05 12:58:13;;;;;;;14.43;6.43;;;;;;;12.00;56.43;98109.69;5049560;28;20506;-74
2022/02/05 13:00:39;;;;;;;13.90;6.28;;;;;;;12.01;55.82;98108.59;5059148;28;20154;-76
2022/02/05 13:03:24;;;;;;;13.05;5.93;;;;;;;11.87;56.10;98102.28;5067674;28;20025;-76
2022/02/05 13:05:49;;;;;;;13.67;7.03;;;;;;;11.75;57.04;98105.47;5057000;28;20051;-76
2022/02/05 13:08:14;;;;;;;10.80;6.22;;;;;;;11.89;56.80;98108.25;5057137;28;20483;-75
2022/02/05 13:10:42;;;;;;;11.90;6.18;;;;;;;11.92;56.34;98121.38;5056390;28;20087;-75
2022/02/05 13:13:09;;;;;;;16.42;6.28;;;;;;;11.95;56.42;98110.63;5065329;28;20084;-74
2022/02/05 13:15:35;;;;;;;14.85;6.53;;;;;;;11.68;56.49;98088.59;5066204;28;20062;-76
2022/02/05 13:34:14;;;;;;;14.05;6.43;;;;;;;11.85;56.89;98118.19;5054132;28;20417;-74
2022/02/05 13:36:47;;;;;;;14.35;6.72;;;;;;;11.99;56.92;98128.09;5059717;28;20035;-75
2022/02/05 13:42:25;;;;;;;16.60;7.20;;;;;;;12.20;56.63;98131.28;5057325;28;20083;-76
2022/02/05 13:47:19;;;;;;;21.08;9.05;;;;;;;12.16;57.27;98143.97;5057340;28;20033;-79
2022/02/05 13:50:09;;;;;;;19.88;8.90;;;;;;;11.99;58.14;98144.56;5055234;28;20028;-80
2022/02/05 13:52:48;;;;;;;15.30;8.20;;;;;;;12.04;58.39;98149.13;5047798;28;20031;-76
2022/02/05 13:55:24;;;;;;;20.08;8.65;;;;;;;11.86;59.27;98147.25;5063346;28;20794;-78
2022/02/05 13:58:00;;;;;;;;;;;;;;;12.13;58.86;98150.88;5056060;28;20506;-79
2022/02/05 14:00:47;;;;;;;16.15;8.55;;;;;;;12.13;58.42;98156.38;5057996;28;20313;-76
2022/02/05 14:03:15;;;;;;;15.07;8.18;;;;;;;12.02;59.68;98159.59;5044447;28;20390;-77
2022/02/05 14:05:43;;;;;;;20.05;8.50;;;;;;;11.98;60.48;98164.03;5054561;28;20180;-75
2022/02/05 14:08:09;;;;;;;15.57;8.20;;;;;;;11.90;60.87;98162.81;5055381;28;20029;-78
2022/02/05 14:10:39;;;;;;;14.13;7.68;;;;;;;11.85;60.88;98164.78;5063577;28;20529;-78
2022/02/05 14:13:05;;;;;;;14.50;8.05;;;;;;;11.81;61.17;98168.13;5058070;28;20432;-79
2022/02/05 14:15:49;;;;;;;16.85;8.20;;;;;;;11.82;61.56;98177.16;5056392;28;20040;-81
2022/02/05 14:18:16;;;;;;;17.48;8.80;;;;;;;11.92;61.62;98181.69;5057994;28;20078;-76
2022/02/05 14:20:51;;;;;;;16.73;7.55;;;;;;;11.69;62.59;98186.09;5061791;28;20059;-80
2022/02/05 14:23:19;;;;;;;16.55;7.97;;;;;;;11.69;62.94;98183.34;5050623;28;20032;-76
2022/02/05 14:26:03;;;;;;;15.95;7.78;;;;;;;11.63;63.12;98174.41;5064115;28;20056;-78
2022/02/05 14:28:51;;;;;;;12.65;8.20;;;;;;;11.55;63.89;98183.31;5061673;28;20029;-75
2022/02/05 14:36:41;;;;;;;15.98;8.50;;;;;;;11.53;64.31;98177.28;5068104;28;20508;-77
2022/02/05 14:41:54;;;;;;;13.55;7.05;;;;;;;11.58;64.24;98177.22;5072361;28;20440;-79
2022/02/05 14:44:19;;;;;;;14.63;7.13;;;;;;;11.43;64.09;98182.94;5059282;28;20127;-76